Time;durP1;ratioP1;P1;durP2;ratioP2;P2;SDS_P1;SDS_P2;PMS_P1;PMS_P2;Temp;Humidity;BMP_temperature;BMP_pressure;BME280_temperature;BME280_humidity;BME280_pressure;Samples;Min_cycle;Max_cycle;Signal;HPM_P1;HPM_P2
2023/01/04 00:00:49;;;;;;;;;;;;;;;11.93;52.94;100904.75;4459219;32;32737;-70
2023/01/04 00:03:17;;;;;;;;;;;;;;;12.22;51.63;100913.66;4470475;32;34070;-69
2023/01/04 00:05:44;;;;;;;;;;;;;;;12.46;51.08;100911.25;4464143;32;32397;-67
2023/01/04 00:08:12;;;;;;;;;;;;;;;12.02;51.68;100917.59;4473802;32;34415;-68
2023/01/04 00:10:39;;;;;;;;;;;;;;;12.49;50.59;100912.88;4471005;32;35246;-71
2023/01/04 00:13:06;;;;;;;;;;;;;;;12.02;52.85;100917.59;4474341;32;32835;-70
2023/01/04 00:15:33;;;;;;;;;;;;;;;12.44;50.92;100920.34;4469162;32;34848;-66
2023/01/04 00:18:01;;;;;;;;;;;;;;;12.37;50.26;100910.97;4475351;31;33288;-68
2023/01/04 00:20:28;;;;;;;;;;;;;;;12.51;49.86;100914.47;4465397;32;34078;-66
2023/01/04 00:22:56;;;;;;;;;;;;;;;12.64;49.61;100909.19;4465712;32;33355;-66
2023/01/04 00:25:24;;;;;;;;;;;;;;;12.71;49.25;100907.84;4477671;32;34374;-66
2023/01/04 00:27:51;;;;;;;;;;;;;;;12.67;49.07;100908.97;4479450;32;33141;-66
2023/01/04 00:30:37;;;;;;;;;;;;;;;12.62;49.11;100911.13;4473378;32;34133;-65
2023/01/04 00:33:05;;;;;;;;;;;;;;;12.44;49.41;100909.62;4477167;32;33980;-66
2023/01/04 00:35:32;;;;;;;;;;;;;;;12.44;49.43;100906.94;4470300;31;33972;-68
2023/01/04 00:38:12;;;;;;;;;;;;;;;12.47;49.37;100910.28;4470120;32;34383;-66
2023/01/04 00:40:39;;;;;;;;;;;;;;;11.82;50.85;100901.84;4472404;32;35395;-65
2023/01/04 00:43:07;;;;;;;;;;;;;;;12.01;50.68;100906.97;4475062;32;34034;-66
2023/01/04 00:45:34;;;;;;;;;;;;;;;12.17;50.24;100907.72;4476990;32;32754;-65
2023/01/04 00:48:01;;;;;;;;;;;;;;;12.22;50.02;100902.91;4469581;32;32699;-67
2023/01/04 00:50:28;;;;;;;;;;;;;;;12.29;49.65;100904.25;4471835;32;35175;-68
2023/01/04 00:52:56;;;;;;;;;;;;;;;12.22;49.57;100907.44;4477426;32;34807;-68
2023/01/04 00:55:24;;;;;;;;;;;;;;;12.24;49.25;100908.19;4479627;31;33877;-69
2023/01/04 00:57:51;;;;;;;;;;;;;;;12.33;49.09;100905.78;4468546;32;34837;-67
2023/01/04 01:00:18;;;;;;;;;;;;;;;12.30;48.99;100908.69;4476987;32;34624;-71
2023/01/04 01:02:46;;;;;;;;;;;;;;;12.10;49.48;100917.09;4475614;31;33855;-68
2023/01/04 01:05:13;;;;;;;;;;;;;;;12.23;49.17;100922.56;4478590;32;34979;-68
2023/01/04 01:07:41;;;;;;;;;;;;;;;12.35;48.73;100929.84;4478208;31;32217;-71
2023/01/04 01:10:08;;;;;;;;;;;;;;;12.40;48.49;100926.88;4480749;32;33874;-68
2023/01/04 01:12:35;;;;;;;;;;;;;;;12.31;48.54;100929.19;4476623;31;34499;-68
2023/01/04 01:15:03;;;;;;;;;;;;;;;12.05;49.25;100920.09;4480148;32;33465;-70
2023/01/04 01:17:30;;;;;;;;;;;;;;;12.04;49.15;100918.37;4480095;31;33986;-69
2023/01/04 01:19:57;;;;;;;;;;;;;;;12.15;48.78;100923.06;4479776;32;34205;-70
2023/01/04 01:22:25;;;;;;;;;;;;;;;11.74;50.00;100921.06;4468034;32;34066;-69
2023/01/04 01:24:52;;;;;;;;;;;;;;;12.05;49.33;100914.72;4473175;32;34113;-69
2023/01/04 01:27:19;;;;;;;;;;;;;;;11.94;49.37;100919.91;4472489;32;32047;-70
2023/01/04 01:29:47;;;;;;;;;;;;;;;11.27;51.31;100916.75;4473457;31;35134;-69
2023/01/04 01:32:14;;;;;;;;;;;;;;;11.35;51.11;100917.16;4450943;32;35577;-68
2023/01/04 01:34:41;;;;;;;;;;;;;;;11.17;51.57;100918.22;4473872;32;35359;-68
2023/01/04 01:37:08;;;;;;;;;;;;;;;11.17;51.56;100924.47;4478482;32;34410;-69
2023/01/04 01:39:36;;;;;;;;;;;;;;;11.28;51.53;100914.94;4475703;31;34056;-69
2023/01/04 01:42:03;;;;;;;;;;;;;;;11.11;51.76;100910.56;4473635;32;35499;-68
2023/01/04 01:44:42;;;;;;;;;;;;;;;11.19;51.76;100913.66;4470538;32;34387;-68
2023/01/04 01:47:16;;;;;;;;;;;;;;;11.12;51.67;100906.94;4475898;32;33465;-67
2023/01/04 01:49:44;;;;;;;;;;;;;;;10.91;52.66;100907.25;4458582;32;32852;-65
2023/01/04 01:52:20;;;;;;;;;;;;;;;11.15;52.06;100904.94;4458527;32;34077;-66
2023/01/04 01:54:48;;;;;;;;;;;;;;;11.25;51.44;100912.44;4471829;32;34106;-67
2023/01/04 01:57:17;;;;;;;;;;;;;;;10.95;52.24;100903.44;4454857;32;33153;-66
2023/01/04 01:59:44;;;;;;;;;;;;;;;10.67;53.01;100905.97;4465793;32;34207;-66
2023/01/04 02:02:12;;;;;;;;;;;;;;;11.26;51.35;100917.69;4470457;32;33492;-66
2023/01/04 02:04:40;;;;;;;;;;;;;;;10.75;52.55;100910.88;4465860;32;32810;-69
2023/01/04 02:07:08;;;;;;;;;;;;;;;10.85;52.33;100910.28;4475431;31;33180;-69
2023/01/04 02:09:35;;;;;;;;;;;;;;;10.93;52.01;100912.50;4467208;32;33657;-69
2023/01/04 02:12:02;;;;;;;;;;;;;;;10.85;52.40;100914.75;4476032;31;34336;-68
2023/01/04 02:14:30;;;;;;;;;;;;;;;11.29;51.02;100912.16;4476693;32;34150;-67
2023/01/04 02:17:08;;;;;;;;;;;;;;;11.36;50.92;100909.97;4477725;31;33336;-67
2023/01/04 02:19:50;;;;;;;;;;;;;;;11.60;49.86;100918.37;4477150;32;34350;-68
2023/01/04 02:22:36;;;;;;;;;;;;;;;11.63;49.84;100907.47;4474812;32;35487;-66
2023/01/04 02:25:22;;;;;;;;;;;;;;;11.67;49.61;100909.00;4478352;32;34577;-66
2023/01/04 02:28:00;;;;;;;;;;;;;;;11.60;49.70;100907.66;4473918;32;33369;-66
2023/01/04 02:30:48;;;;;;;;;;;;;;;11.54;49.60;100906.19;4479151;32;34211;-67
2023/01/04 02:33:27;;;;;;;;;;;;;;;11.31;50.10;100906.72;4479953;32;36322;-66
2023/01/04 02:35:58;;;;;;;;;;;;;;;10.85;50.84;100904.91;4478228;32;34314;-66
2023/01/04 02:38:46;;;;;;;;;;;;;;;10.87;51.09;100900.31;4470508;32;32014;-66
2023/01/04 02:41:22;;;;;;;;;;;;;;;10.62;51.73;100899.97;4461285;32;33082;-66
2023/01/04 02:46:46;;;;;;;;;;;;;;;10.62;51.84;100908.88;4476843;32;34440;-66
2023/01/04 02:52:00;;;;;;;;;;;;;;;10.59;51.55;100906.38;4481164;32;34110;-69
2023/01/04 02:54:31;;;;;;;;;;;;;;;10.76;51.41;100905.44;4478494;32;35246;-67
2023/01/04 02:57:00;;;;;;;;;;;;;;;10.69;51.41;100906.75;4467130;32;34931;-68
2023/01/04 02:59:51;;;;;;;;;;;;;;;10.54;52.31;100902.25;4457938;32;32637;-67
2023/01/04 03:08:02;;;;;;;;;;;;;;;10.80;51.00;100900.75;4455735;32;32934;-68
2023/01/04 03:10:33;;;;;;;;;;;;;;;10.91;50.54;100899.22;4452681;32;33511;-67
2023/01/04 03:13:02;;;;;;;;;;;;;;;11.02;50.25;100903.94;4458800;32;33093;-67
2023/01/04 03:15:30;;;;;;;;;;;;;;;10.72;50.58;100906.53;4481258;32;34413;-69
2023/01/04 03:17:57;;;;;;;;;;;;;;;10.65;50.75;100907.84;4463436;32;34415;-67
2023/01/04 03:20:26;;;;;;;;;;;;;;;10.88;49.96;100904.75;4467448;32;34153;-67
2023/01/04 03:37:09;;;;;;;;;;;;;;;10.44;51.88;100902.75;4473928;32;35332;-68
2023/01/04 03:48:30;;;;;;;;;;;;;;;10.44;52.25;100905.44;4472589;32;34190;-65
2023/01/04 03:51:00;;;;;;;;;;;;;;;10.60;51.69;100909.94;4477591;32;33562;-66
2023/01/04 03:53:27;;;;;;;;;;;;;;;10.81;51.08;100906.03;4464998;32;32051;-71
2023/01/04 03:55:54;;;;;;;;;;;;;;;11.00;50.20;100915.69;4461149;32;34098;-69
2023/01/04 03:58:21;;;;;;;;;;;;;;;10.93;50.25;100915.19;4479550;32;35971;-69
2023/01/04 04:00:49;;;;;;;;;;;;;;;11.04;49.81;100903.81;4474469;32;34101;-69
2023/01/04 04:03:17;;;;;;;;;;;;;;;11.12;49.44;100906.94;4477906;32;33463;-69
2023/01/04 04:08:30;;;;;;;;;;;;;;;11.08;49.56;100902.72;4461214;32;34220;-69
2023/01/04 04:14:01;;;;;;;;;;;;;;;10.86;50.47;100893.25;4442544;32;34691;-70
2023/01/04 04:16:28;;;;;;;;;;;;;;;11.00;50.18;100902.28;4472453;32;33858;-71
2023/01/04 04:18:55;;;;;;;;;;;;;;;10.94;50.18;100907.03;4467538;32;34150;-66
2023/01/04 04:21:23;;;;;;;;;;;;;;;10.95;50.79;100906.09;4473687;32;34977;-66
2023/01/04 04:23:50;;;;;;;;;;;;;;;11.17;50.09;100903.03;4456011;32;31682;-66
2023/01/04 04:26:17;;;;;;;;;;;;;;;11.09;50.16;100904.44;4474344;32;34033;-66
2023/01/04 04:28:45;;;;;;;;;;;;;;;11.25;48.64;100907.94;4473142;32;34336;-66
2023/01/04 04:31:12;;;;;;;;;;;;;;;10.80;49.39;100908.81;4470264;32;34053;-66
2023/01/04 04:33:39;;;;;;;;;;;;;;;10.71;49.30;100905.69;4476597;32;32039;-66
2023/01/04 04:36:07;;;;;;;;;;;;;;;10.08;51.16;100912.75;4479640;32;33498;-67
2023/01/04 04:38:34;;;;;;;;;;;;;;;10.46;50.30;100911.56;4477301;32;35440;-66
2023/01/04 04:43:51;;;;;;;;;;;;;;;10.59;49.59;100903.69;4475566;32;34226;-68
2023/01/04 04:46:19;;;;;;;;;;;;;;;10.32;49.90;100907.94;4480988;32;35623;-67
2023/01/04 04:48:46;;;;;;;;;;;;;;;10.41;50.42;100907.41;4477187;32;34750;-68
2023/01/04 04:51:13;;;;;;;;;;;;;;;10.46;50.28;100908.91;4479116;32;33908;-67
2023/01/04 04:53:41;;;;;;;;;;;;;;;10.67;49.30;100904.13;4473371;32;34050;-67
2023/01/04 04:56:08;;;;;;;;;;;;;;;10.63;49.60;100904.41;4474168;31;33998;-66
2023/01/04 04:58:36;;;;;;;;;;;;;;;10.62;49.67;100905.34;4480134;32;34244;-67
2023/01/04 05:01:03;;;;;;;;;;;;;;;10.37;50.16;100904.06;4476002;31;33859;-66
2023/01/04 05:03:31;;;;;;;;;;;;;;;10.48;50.06;100898.94;4478737;32;33279;-66
2023/01/04 05:05:58;;;;;;;;;;;;;;;10.27;50.84;100897.47;4469072;32;34416;-66
2023/01/04 05:08:26;;;;;;;;;;;;;;;9.68;52.16;100902.38;4466848;32;33963;-67
2023/01/04 05:10:53;;;;;;;;;;;;;;;10.09;50.83;100907.34;4465861;32;33989;-67
2023/01/04 05:13:20;;;;;;;;;;;;;;;10.05;50.94;100900.44;4474684;32;32151;-67
2023/01/04 05:15:49;;;;;;;;;;;;;;;9.81;51.75;100913.31;4473632;32;34030;-66
2023/01/04 05:18:17;;;;;;;;;;;;;;;9.99;51.28;100908.78;4472747;32;35429;-67
2023/01/04 05:20:44;;;;;;;;;;;;;;;9.64;52.83;100916.00;4475532;32;33421;-68
2023/01/04 05:23:12;;;;;;;;;;;;;;;9.87;51.71;100909.44;4473613;32;32837;-66
2023/01/04 05:25:40;;;;;;;;;;;;;;;9.93;51.77;100909.97;4476311;32;32810;-67
2023/01/04 05:28:08;;;;;;;;;;;;;;;10.09;50.98;100919.84;4477642;31;34187;-67
2023/01/04 05:30:50;;;;;;;;;;;;;;;9.95;51.65;100928.59;4477008;31;34153;-67
2023/01/04 05:33:19;;;;;;;;;;;;;;;9.93;51.71;100930.50;4473608;31;33299;-68
2023/01/04 05:35:46;;;;;;;;;;;;;;;9.96;51.17;100933.88;4474212;32;35311;-67
2023/01/04 05:38:13;;;;;;;;;;;;;;;10.02;50.85;100928.22;4472356;32;34192;-66
2023/01/04 05:40:41;;;;;;;;;;;;;;;9.94;51.66;100935.78;4477186;32;35328;-66
2023/01/04 05:43:09;;;;;;;;;;;;;;;10.07;51.05;100932.44;4475490;32;33256;-66
2023/01/04 05:45:36;;;;;;;;;;;;;;;10.10;50.88;100937.63;4481711;32;33729;-66
2023/01/04 05:48:03;;;;;;;;;;;;;;;10.14;51.45;100936.50;4477923;32;34246;-65
2023/01/04 05:50:31;;;;;;;;;;;;;;;10.16;51.05;100934.63;4472168;32;33674;-66
2023/01/04 05:53:03;;;;;;;;;;;;;;;10.19;50.73;100934.47;4471888;32;33635;-65
2023/01/04 05:55:31;;;;;;;;;;;;;;;10.31;50.02;100938.31;4471414;31;35411;-65
2023/01/04 05:57:58;;;;;;;;;;;;;;;10.31;50.25;100932.97;4476723;32;34162;-67
2023/01/04 06:00:25;;;;;;;;;;;;;;;10.23;50.35;100930.66;4479103;32;33654;-66
2023/01/04 06:02:54;;;;;;;;;;;;;;;10.22;50.75;100939.66;4476774;32;32716;-66
2023/01/04 06:05:22;;;;;;;;;;;;;;;10.14;51.07;100934.69;4468961;32;34036;-66
2023/01/04 06:07:49;;;;;;;;;;;;;;;10.13;50.53;100935.66;4476041;32;34073;-65
2023/01/04 06:10:17;;;;;;;;;;;;;;;10.27;50.07;100932.25;4475847;32;35034;-65
2023/01/04 06:12:45;;;;;;;;;;;;;;;10.26;50.25;100925.19;4475662;31;33317;-65
2023/01/04 06:15:12;;;;;;;;;;;;;;;10.17;50.38;100931.00;4472722;32;33797;-65
2023/01/04 06:17:39;;;;;;;;;;;;;;;9.84;50.87;100931.84;4474966;32;34536;-65
2023/01/04 06:20:08;;;;;;;;;;;;;;;10.01;49.98;100937.16;4477208;32;32915;-65
2023/01/04 06:22:35;;;;;;;;;;;;;;;10.09;49.76;100949.28;4478929;32;33386;-65
2023/01/04 06:25:03;;;;;;;;;;;;;;;10.17;49.26;100949.72;4471674;32;35003;-66
2023/01/04 06:27:30;;;;;;;;;;;;;;;10.18;48.93;100960.34;4471705;32;34131;-66
2023/01/04 06:29:58;;;;;;;;;;;;;;;10.20;48.78;100955.75;4470247;32;34251;-66
2023/01/04 06:32:25;;;;;;;;;;;;;;;10.11;49.40;100958.06;4475203;32;32825;-65
2023/01/04 06:34:53;;;;;;;;;;;;;;;10.18;49.16;100956.81;4469051;32;33936;-65
2023/01/04 06:37:20;;;;;;;;;;;;;;;10.24;48.54;100960.03;4478975;32;34181;-66
2023/01/04 06:39:47;;;;;;;;;;;;;;;10.01;50.39;100950.53;4477568;32;34771;-65
2023/01/04 06:45:01;;;;;;;;;;;;;;;10.22;49.46;100953.88;4478110;31;34441;-65
2023/01/04 06:47:28;;;;;;;;;;;;;;;10.44;48.24;100956.28;4476880;32;34152;-65
2023/01/04 06:49:55;;;;;;;;;;;;;;;10.55;48.08;100949.47;4475446;32;35107;-64
2023/01/04 06:52:23;;;;;;;;;;;;;;;10.91;47.82;100963.50;4478104;32;32859;-65
2023/01/04 06:54:50;;;;;;;;;;;;;;;11.46;47.40;100961.22;4467527;32;35644;-65
2023/01/04 06:57:17;;;;;;;;;;;;;;;12.22;45.62;100951.22;4476532;32;34244;-65
2023/01/04 06:59:45;;;;;;;;;;;;;;;13.21;42.79;100957.38;4480582;32;34176;-66
2023/01/04 07:02:12;;;;;;;;;;;;;;;14.23;40.77;100954.03;4472610;32;34374;-65
2023/01/04 07:04:41;;;;;;;;;;;;;;;15.46;37.95;100953.97;4475591;32;33935;-66
2023/01/04 07:07:09;;;;;;;;;;;;;;;16.27;36.02;100957.62;4472372;32;34099;-66
2023/01/04 07:09:37;;;;;;;;;;;;;;;16.68;34.66;100958.84;4474563;32;33417;-66
2023/01/04 07:12:04;;;;;;;;;;;;;;;17.30;33.18;100960.94;4478936;31;33432;-66
2023/01/04 07:14:32;;;;;;;;;;;;;;;18.14;32.00;100966.47;4471235;32;34313;-67
2023/01/04 07:16:59;;;;;;;;;;;;;;;18.45;31.30;100961.91;4471993;32;34360;-67
2023/01/04 07:19:26;;;;;;;;;;;;;;;17.46;32.67;100974.94;4467677;32;34139;-67
2023/01/04 07:21:54;;;;;;;;;;;;;;;16.50;33.89;100982.81;4477404;32;34331;-67
2023/01/04 07:24:21;;;;;;;;;;;;;;;15.98;34.94;100979.69;4470833;32;34034;-67
2023/01/04 07:26:58;;;;;;;;;;;;;;;15.84;35.47;100979.91;4474281;32;33108;-67
2023/01/04 07:29:25;;;;;;;;;;;;;;;15.72;35.34;100973.59;4478591;32;32879;-67
2023/01/04 07:31:53;;;;;;;;;;;;;;;15.41;36.33;100963.38;4482075;32;33145;-67
2023/01/04 07:34:21;;;;;;;;;;;;;;;15.86;35.80;100961.75;4479695;31;34243;-66
2023/01/04 07:36:48;;;;;;;;;;;;;;;16.19;35.25;100960.94;4478165;32;33903;-67
2023/01/04 07:39:16;;;;;;;;;;;;;;;16.67;34.43;100966.09;4463978;32;33120;-67
2023/01/04 07:41:44;;;;;;;;;;;;;;;16.88;33.90;100955.41;4478214;32;33410;-67
2023/01/04 07:44:13;;;;;;;;;;;;;;;17.73;33.28;100953.75;4465882;32;35240;-66
2023/01/04 07:46:41;;;;;;;;;;;;;;;17.97;32.30;100948.09;4468804;32;34221;-66
2023/01/04 07:49:10;;;;;;;;;;;;;;;18.30;32.46;100945.16;4474052;31;34318;-67
2023/01/04 07:51:44;;;;;;;;;;;;;;;19.70;30.62;100946.88;4477329;32;34161;-67
2023/01/04 07:54:11;;;;;;;;;;;;;;;20.31;29.12;100955.63;4477933;32;33492;-67
2023/01/04 07:56:38;;;;;;;;;;;;;;;19.68;29.52;100957.06;4472495;31;33733;-67
2023/01/04 07:59:06;;;;;;;;;;;;;;;19.66;29.84;100959.06;4481790;32;33933;-67
2023/01/04 08:01:36;;;;;;;;;;;;;;;19.66;30.53;100959.06;4471857;32;32914;-68
2023/01/04 08:04:05;;;;;;;;;;;;;;;20.01;29.59;100957.56;4476713;32;34208;-67
2023/01/04 08:06:32;;;;;;;;;;;;;;;19.70;29.82;100965.91;4476287;31;34368;-67
2023/01/04 08:09:00;;;;;;;;;;;;;;;19.19;30.86;100960.72;4463036;32;33823;-66
2023/01/04 08:11:27;;;;;;;;;;;;;;;18.82;31.58;100964.06;4479547;32;33209;-67
2023/01/04 08:13:54;;;;;;;;;;;;;;;18.50;32.05;100966.94;4451176;32;32620;-67
2023/01/04 08:16:31;;;;;;;;;;;;;;;18.51;32.14;100950.50;4471487;32;32759;-67
2023/01/04 08:19:00;;;;;;;;;;;;;;;18.70;31.97;100952.44;4465216;32;34022;-67
2023/01/04 08:21:28;;;;;;;;;;;;;;;18.29;33.05;100945.28;4453331;32;31812;-67
2023/01/04 08:23:55;;;;;;;;;;;;;;;17.75;34.46;100943.62;4479700;32;34751;-66
2023/01/04 08:26:23;;;;;;;;;;;;;;;18.44;33.34;100949.34;4462990;32;32936;-66
2023/01/04 08:28:50;;;;;;;;;;;;;;;18.80;32.35;100949.78;4480827;32;35214;-66
2023/01/04 08:31:19;;;;;;;;;;;;;;;18.77;32.13;100933.78;4476123;32;32125;-67
2023/01/04 08:33:46;;;;;;;;;;;;;;;18.94;32.04;100934.97;4471042;32;34984;-67
2023/01/04 08:36:18;;;;;;;;;;;;;;;19.11;32.13;100938.87;4471279;32;34424;-66
2023/01/04 08:38:54;;;;;;;;;;;;;;;18.82;32.43;100940.50;4472500;32;33776;-67
2023/01/04 08:41:27;;;;;;;;;;;;;;;18.73;33.06;100935.91;4469322;32;33202;-67
2023/01/04 08:44:15;;;;;;;;;;;;;;;18.66;33.31;100937.44;4476225;32;34497;-66
2023/01/04 08:46:43;;;;;;;;;;;;;;;18.96;33.14;100946.53;4479186;31;33702;-66
2023/01/04 08:49:10;;;;;;;;;;;;;;;19.01;32.97;100942.41;4482119;32;34400;-67
2023/01/04 08:51:38;;;;;;;;;;;;;;;18.87;33.55;100937.38;4478313;32;33146;-66
2023/01/04 08:54:05;;;;;;;;;;;;;;;19.73;31.86;100945.75;4480684;32;34102;-66
2023/01/04 08:56:32;;;;;;;;;;;;;;;19.11;33.06;100938.87;4481053;31;34456;-67
2023/01/04 08:59:00;;;;;;;;;;;;;;;18.54;34.41;100941.25;4475950;32;34499;-66
2023/01/04 09:01:27;;;;;;;;;;;;;;;18.23;35.14;100943.97;4475519;32;32073;-66
2023/01/04 09:03:55;;;;;;;;;;;;;;;18.44;34.84;100946.63;4468365;31;33232;-66
2023/01/04 09:06:22;;;;;;;;;;;;;;;18.31;35.31;100956.84;4471007;32;34571;-67
2023/01/04 09:08:49;;;;;;;;;;;;;;;17.99;36.37;100952.41;4477414;31;34066;-67
2023/01/04 09:11:18;;;;;;;;;;;;;;;17.98;35.64;100947.09;4483055;31;34128;-67
2023/01/04 09:13:46;;;;;;;;;;;;;;;19.80;33.12;100940.59;4441175;31;883258;-66
2023/01/04 09:16:14;;;;;;;;;;;;;;;22.38;28.99;100935.63;4469340;31;35483;-66
2023/01/04 09:18:42;;;;;;;;;;;;;;;22.79;28.47;100942.09;4472888;31;34028;-66
2023/01/04 09:21:10;;;;;;;;;;;;;;;23.99;26.20;100937.16;4478064;32;33518;-66
2023/01/04 09:23:38;;;;;;;;;;;;;;;23.40;26.75;100940.06;4475264;32;34339;-66
2023/01/04 09:26:05;;;;;;;;;;;;;;;22.14;28.81;100940.88;4457509;32;34015;-65
2023/01/04 09:28:36;;;;;;;;;;;;;;;21.89;29.32;100935.25;4478960;31;34206;-66
2023/01/04 09:31:07;;;;;;;;;;;;;;;23.20;27.13;100922.25;4460884;32;33384;-66
2023/01/04 09:33:34;;;;;;;;;;;;;;;24.42;25.63;100924.09;4476468;32;35586;-65
2023/01/04 09:36:23;;;;;;;;;;;;;;;24.22;26.14;100929.09;4480536;32;34240;-65
2023/01/04 09:38:51;;;;;;;;;;;;;;;23.77;26.71;100918.75;4467721;32;33997;-66
2023/01/04 09:41:20;;;;;;;;;;;;;;;23.15;27.86;100928.25;4468107;32;33980;-66
2023/01/04 09:43:48;;;;;;;;;;;;;;;22.50;28.30;100917.94;4479833;31;35355;-66
2023/01/04 09:46:21;;;;;;;;;;;;;;;21.66;29.70;100920.44;4468294;32;34779;-66
2023/01/04 09:48:48;;;;;;;;;;;;;;;21.51;29.39;100914.69;4471657;31;33967;-66
2023/01/04 09:51:16;;;;;;;;;;;;;;;22.13;28.65;100896.41;4460062;32;34321;-66
2023/01/04 09:53:48;;;;;;;;;;;;;;;23.69;26.31;100894.97;4459631;32;34051;-66
2023/01/04 09:56:23;;;;;;;;;;;;;;;24.50;25.33;100895.88;4467327;32;34110;-66
2023/01/04 09:58:50;;;;;;;;;;;;;;;24.46;24.97;100899.97;4470416;32;34611;-65
2023/01/04 10:01:21;;;;;;;;;;;;;;;23.98;25.58;100905.41;4479465;32;33146;-66
2023/01/04 10:04:06;;;;;;;;;;;;;;;24.66;24.58;100893.03;4462543;32;32739;-65
2023/01/04 10:06:33;;;;;;;;;;;;;;;23.75;26.03;100896.19;4458836;32;33905;-65
2023/01/04 10:09:02;;;;;;;;;;;;;;;23.12;26.91;100892.22;4460206;32;34416;-66
2023/01/04 10:11:36;;;;;;;;;;;;;;;22.88;26.98;100882.91;4472425;32;34359;-66
2023/01/04 10:14:16;;;;;;;;;;;;;;;23.56;26.42;100890.00;4467762;32;34025;-66
2023/01/04 10:16:59;;;;;;;;;;;;;;;23.48;26.37;100879.09;4469294;32;34285;-66
2023/01/04 10:19:59;;;;;;;;;;;;;;;24.12;25.93;100881.94;4455001;31;35003;-69
2023/01/04 10:22:50;;;;;;;;;;;;;;;24.15;25.62;100879.69;4459163;31;33519;-68
2023/01/04 10:25:26;;;;;;;;;;;;;;;25.60;23.87;100880.09;4484242;32;34204;-68
2023/01/04 10:27:53;;;;;;;;;;;;;;;26.53;22.74;100870.53;4462610;32;34908;-67
2023/01/04 10:30:38;;;;;;;;;;;;;;;27.13;22.04;100866.63;4475558;31;33910;-67
2023/01/04 10:33:05;;;;;;;;;;;;;;;28.02;20.66;100868.00;4461084;32;33435;-67
2023/01/04 10:35:33;;;;;;;;;;;;;;;27.88;20.89;100869.81;4472200;32;34447;-67
2023/01/04 10:38:02;;;;;;;;;;;;;;;27.84;20.89;100868.53;4467258;32;34525;-69
2023/01/04 10:40:31;;;;;;;;;;;;;;;28.39;20.15;100858.47;4475509;32;34217;-68
2023/01/04 10:43:00;;;;;;;;;;;;;;;28.55;19.85;100855.41;4464969;32;34373;-67
2023/01/04 10:45:44;;;;;;;;;;;;;;;28.15;20.37;100857.06;4481987;32;34240;-67
2023/01/04 10:48:17;;;;;;;;;;;;;;;28.23;20.25;100854.16;4457601;32;34274;-67
2023/01/04 10:50:47;;;;;;;;;;;;;;;26.53;22.11;100842.25;4456881;32;34388;-67
2023/01/04 10:53:14;;;;;;;;;;;;;;;25.10;24.00;100843.13;4456428;32;34485;-69
2023/01/04 10:55:43;;;;;;;;;;;;;;;25.19;24.02;100850.28;4475527;32;33870;-69
2023/01/04 10:58:34;;;;;;;;;;;;;;;26.13;23.20;100839.81;4474836;32;35114;-69
2023/01/04 11:01:09;;;;;;;;;;;;;;;26.09;23.11;100826.63;4457442;32;33857;-69
2023/01/04 11:03:37;;;;;;;;;;;;;;;25.97;23.48;100826.25;4462949;32;31844;-68
2023/01/04 11:06:24;;;;;;;;;;;;;;;26.36;23.10;100820.47;4466000;32;34050;-68
2023/01/04 11:08:58;;;;;;;;;;;;;;;27.35;21.97;100815.25;4459400;32;34107;-68
2023/01/04 11:11:29;;;;;;;;;;;;;;;27.51;21.59;100808.59;4461956;32;34506;-68
2023/01/04 11:13:58;;;;;;;;;;;;;;;26.82;22.20;100797.38;4462575;32;33893;-68
2023/01/04 11:16:27;;;;;;;;;;;;;;;25.58;23.74;100799.91;4458763;32;34429;-68
2023/01/04 11:18:54;;;;;;;;;;;;;;;25.93;23.47;100800.25;4465852;32;34264;-69
2023/01/04 11:21:23;;;;;;;;;;;;;;;26.63;22.69;100788.72;4481671;32;33999;-69
2023/01/04 11:23:50;;;;;;;;;;;;;;;26.94;22.32;100790.31;4475766;32;34517;-68
2023/01/04 11:26:26;;;;;;;;;;;;;;;26.95;21.82;100783.75;4477484;32;33480;-68
2023/01/04 11:28:54;;;;;;;;;;;;;;;26.56;22.32;100770.47;4457499;32;34195;-70
2023/01/04 11:31:26;;;;;;;;;;;;;;;26.20;23.26;100769.41;4455641;32;35061;-69
2023/01/04 11:33:58;;;;;;;;;;;;;;;25.63;23.40;100761.84;4471833;31;32209;-69
2023/01/04 11:36:38;;;;;;;;;;;;;;;24.97;24.31;100758.81;4460691;32;33375;-69
2023/01/04 11:39:25;;;;;;;;;;;;;;;24.59;25.26;100763.38;4478276;32;35160;-70
2023/01/04 11:42:13;;;;;;;;;;;;;;;23.86;26.14;100753.69;4480643;32;34070;-70
2023/01/04 11:44:41;;;;;;;;;;;;;;;22.86;27.52;100759.41;4457212;32;34426;-68
2023/01/04 11:47:09;;;;;;;;;;;;;;;22.03;28.39;100760.22;4472928;32;34458;-68
2023/01/04 11:49:36;;;;;;;;;;;;;;;21.01;29.95;100758.22;4476856;32;35466;-68
2023/01/04 11:52:04;;;;;;;;;;;;;;;20.50;30.88;100759.75;4480616;31;34473;-68
2023/01/04 11:54:31;;;;;;;;;;;;;;;19.71;32.15;100747.62;4472279;32;34301;-67
2023/01/04 11:57:00;;;;;;;;;;;;;;;19.45;32.96;100749.25;4477578;32;34277;-68
2023/01/04 11:59:30;;;;;;;;;;;;;;;19.25;33.70;100754.72;4478527;31;34815;-68
2023/01/04 12:02:15;;;;;;;;;;;;;;;19.26;33.46;100756.47;4473529;32;34226;-69
2023/01/04 12:05:05;;;;;;;;;;;;;;;18.87;33.63;100755.63;4472150;32;33444;-70
2023/01/04 12:07:32;;;;;;;;;;;;;;;18.83;32.98;100746.94;4470008;32;35223;-68
2023/01/04 12:10:01;;;;;;;;;;;;;;;18.53;33.92;100741.63;4459680;32;34603;-68
2023/01/04 12:12:30;;;;;;;;;;;;;;;18.51;34.06;100747.19;4460965;32;34046;-68
2023/01/04 12:14:59;;;;;;;;;;;;;;;18.29;34.04;100745.59;4471316;32;33303;-68
2023/01/04 12:17:28;;;;;;;;;;;;;;;18.15;34.76;100744.16;4463625;32;32575;-68
2023/01/04 12:19:56;;;;;;;;;;;;;;;17.99;34.93;100740.25;4457513;32;36009;-68
2023/01/04 12:22:24;;;;;;;;;;;;;;;17.95;34.00;100730.72;4464885;32;34788;-68
2023/01/04 12:24:53;;;;;;;;;;;;;;;17.78;32.66;100732.19;4448405;32;33079;-68
2023/01/04 12:27:27;;;;;;;;;;;;;;;17.42;33.40;100721.75;4476098;32;34030;-69
2023/01/04 12:29:58;;;;;;;;;;;;;;;17.53;33.83;100723.53;4474763;32;35322;-68
2023/01/04 12:32:25;;;;;;;;;;;;;;;17.68;32.68;100721.28;4475194;32;33766;-67
2023/01/04 12:34:53;;;;;;;;;;;;;;;17.72;32.80;100713.75;4475810;32;33333;-68
2023/01/04 12:37:45;;;;;;;;;;;;;;;17.34;33.79;100712.63;4476306;32;34934;-67
2023/01/04 12:40:30;;;;;;;;;;;;;;;17.39;34.24;100711.19;4472639;32;34305;-68
2023/01/04 12:43:13;;;;;;;;;;;;;;;17.51;33.66;100713.84;4475028;32;33819;-69
2023/01/04 12:45:44;;;;;;;;;;;;;;;17.15;34.43;100705.25;4473419;32;33605;-69
2023/01/04 12:51:19;;;;;;;;;;;;;;;17.06;34.01;100695.22;4480834;32;34194;-67
2023/01/04 12:54:21;;;;;;;;;;;;;;;16.99;34.34;100684.94;4473520;32;35204;-68
2023/01/04 12:57:07;;;;;;;;;;;;;;;16.87;34.33;100677.87;4470963;32;33794;-67
2023/01/04 12:59:38;;;;;;;;;;;;;;;16.54;34.71;100682.47;4472936;32;34409;-68
2023/01/04 13:02:19;;;;;;;;;;;;;;;16.03;38.72;100683.16;4450220;32;34334;-68
2023/01/04 13:04:47;;;;;;;;;;;;;;;15.82;40.78;100677.66;4472561;32;33657;-67
2023/01/04 13:07:17;;;;;;;;;;;;;;;15.50;42.66;100691.03;4456241;32;33036;-68
2023/01/04 13:09:47;;;;;;;;;;;;;;;15.86;41.70;100683.69;4462214;32;33035;-68
2023/01/04 13:12:19;;;;;;;;;;;;;;;15.75;42.44;100679.16;4475366;32;33483;-68
2023/01/04 13:14:47;;;;;;;;;;;;;;;15.94;42.47;100677.66;4457278;32;33821;-68
2023/01/04 13:17:16;;;;;;;;;;;;;;;15.43;43.77;100689.81;4472835;32;33220;-69
2023/01/04 13:19:43;;;;;;;;;;;;;;;14.93;45.39;100691.13;4474950;32;33670;-67
2023/01/04 13:22:17;;;;;;;;;;;;;;;14.88;45.93;100692.34;4477274;32;34335;-68
2023/01/04 13:24:52;;;;;;;;;;;;;;;15.00;45.84;100689.69;4471479;32;33880;-68
2023/01/04 13:27:20;;;;;;;;;;;;;;;15.13;45.29;100683.19;4462894;32;31804;-67
2023/01/04 13:29:49;;;;;;;;;;;;;;;14.87;45.17;100676.31;4480546;32;34256;-67
2023/01/04 13:32:19;;;;;;;;;;;;;;;14.96;45.17;100675.59;4455890;32;32945;-68
2023/01/04 13:34:51;;;;;;;;;;;;;;;15.26;44.61;100674.13;4479169;32;33581;-68
2023/01/04 13:37:38;;;;;;;;;;;;;;;14.71;44.76;100675.78;4454872;32;31696;-68
2023/01/04 13:40:12;;;;;;;;;;;;;;;14.96;44.12;100664.81;4475914;32;34137;-68
2023/01/04 13:42:41;;;;;;;;;;;;;;;14.91;44.58;100673.25;4474065;32;34263;-68